Time;durP1;ratioP1;P1;durP2;ratioP2;P2;SDS_P1;SDS_P2;PMS_P1;PMS_P2;Temp;Humidity;BMP_temperature;BMP_pressure;BME280_temperature;BME280_humidity;BME280_pressure;Samples;Min_cycle;Max_cycle;Signal;HPM_P1;HPM_P2
2022/11/29 00:00:05;;;;;;;;;;;;;;;17.31;64.33;101614.09;7404313;19;1595;-43
2022/11/29 00:02:36;;;;;;;;;;;;;;;17.32;64.91;101622.97;7402909;19;1489;-42
2022/11/29 00:05:06;;;;;;;;;;;;;;;17.32;65.21;101618.47;7402427;19;1846;-43
2022/11/29 00:07:41;;;;;;;;;;;;;;;17.39;64.36;101625.13;7404691;19;1261;-43
2022/11/29 00:10:12;;;;;;;;;;;;;;;17.32;64.31;101618.47;7404353;19;1029;-42
2022/11/29 00:12:44;;;;;;;;;;;;;;;17.33;64.83;101628.22;7404067;19;2162;-43
2022/11/29 00:15:20;;;;;;;;;;;;;;;17.34;65.16;101629.91;7404109;19;1565;-42
2022/11/29 00:17:53;;;;;;;;;;;;;;;17.32;64.24;101623.81;7404052;19;1828;-43
2022/11/29 00:20:21;;;;;;;;;;;;;;;17.37;64.73;101627.06;7403446;19;1826;-43
2022/11/29 00:22:49;;;;;;;;;;;;;;;17.35;64.02;101618.28;7402770;19;1486;-43
2022/11/29 00:25:19;;;;;;;;;;;;;;;17.34;64.37;101626.41;7400468;19;1854;-43
2022/11/29 00:27:49;;;;;;;;;;;;;;;17.33;64.39;101628.22;7403662;19;1561;-43
2022/11/29 00:30:20;;;;;;;;;;;;;;;17.33;64.30;101625.53;7403287;19;1841;-43
2022/11/29 00:32:55;;;;;;;;;;;;;;;17.36;63.78;101616.44;7403740;19;1036;-42
2022/11/29 00:35:23;;;;;;;;;;;;;;;17.29;64.33;101621.38;7403825;19;1021;-42
2022/11/29 00:37:51;;;;;;;;;;;;;;;17.27;64.30;101623.28;7402042;19;1991;-42
2022/11/29 00:40:25;;;;;;;;;;;;;;;17.25;64.26;101622.53;7401481;19;1973;-42
2022/11/29 00:42:56;;;;;;;;;;;;;;;17.29;63.88;101602.66;7401786;19;1412;-43
2022/11/29 00:45:29;;;;;;;;;;;;;;;17.28;64.00;101606.28;7400807;19;1859;-42
2022/11/29 00:47:58;;;;;;;;;;;;;;;17.26;64.16;101626.91;7401626;19;1838;-43
2022/11/29 00:50:29;;;;;;;;;;;;;;;17.29;63.75;101608.00;7398612;19;948;-42
2022/11/29 00:52:57;;;;;;;;;;;;;;;17.30;63.75;101613.22;7401298;19;1896;-43
2022/11/29 00:55:33;;;;;;;;;;;;;;;17.28;63.67;101608.94;7402693;19;1761;-43
2022/11/29 00:58:01;;;;;;;;;;;;;;;17.27;63.53;101602.75;7400195;19;1856;-43
2022/11/29 01:00:37;;;;;;;;;;;;;;;17.28;63.86;101606.28;7397702;19;1834;-43
2022/11/29 01:03:13;;;;;;;;;;;;;;;17.30;64.10;101591.84;7397037;19;1731;-43
2022/11/29 01:05:45;;;;;;;;;;;;;;;17.30;63.81;101588.31;7400428;19;1844;-42
2022/11/29 01:08:14;;;;;;;;;;;;;;;17.30;65.04;101597.19;7400966;19;1949;-43
2022/11/29 01:10:42;;;;;;;;;;;;;;;17.32;64.08;101582.88;7401136;19;1491;-43
2022/11/29 01:13:15;;;;;;;;;;;;;;;17.32;64.48;101574.84;7401361;19;1946;-43
2022/11/29 01:15:45;;;;;;;;;;;;;;;17.29;64.03;101582.13;7402047;19;1807;-43
2022/11/29 01:18:14;;;;;;;;;;;;;;;17.29;63.95;101581.28;7400046;19;1824;-43
2022/11/29 01:20:43;;;;;;;;;;;;;;;17.28;64.12;101566.19;7400445;19;1331;-43
2022/11/29 01:23:16;;;;;;;;;;;;;;;17.29;63.61;101587.47;7382974;19;1905;-44
2022/11/29 01:25:45;;;;;;;;;;;;;;;17.29;63.74;101586.63;7397824;19;1941;-43
2022/11/29 01:28:14;;;;;;;;;;;;;;;17.26;63.67;101566.28;7402271;19;1038;-42
2022/11/29 01:30:47;;;;;;;;;;;;;;;17.25;64.11;101577.09;7399796;19;1631;-43
2022/11/29 01:33:20;;;;;;;;;;;;;;;17.24;63.52;101624.31;7398192;19;1805;-43
2022/11/29 01:35:49;;;;;;;;;;;;;;;17.25;63.54;101569.06;7401877;19;1782;-43
2022/11/29 01:38:22;;;;;;;;;;;;;;;17.21;63.54;101563.06;7401764;19;1033;-43
2022/11/29 01:40:58;;;;;;;;;;;;;;;17.24;63.36;101562.84;7400883;19;1069;-43
2022/11/29 01:43:29;;;;;;;;;;;;;;;17.23;63.50;101582.53;7398419;19;2035;-43
2022/11/29 01:45:58;;;;;;;;;;;;;;;17.26;62.92;101570.78;7397879;19;1856;-43
2022/11/29 01:48:31;;;;;;;;;;;;;;;17.26;63.72;101571.63;7401594;19;1752;-43
2022/11/29 01:51:02;;;;;;;;;;;;;;;17.24;63.14;101586.91;7400668;19;1489;-43
2022/11/29 01:53:30;;;;;;;;;;;;;;;17.23;63.48;101582.53;7400300;19;1763;-42
2022/11/29 01:56:02;;;;;;;;;;;;;;;17.26;63.25;101589.47;7401999;19;976;-43
2022/11/29 01:58:32;;;;;;;;;;;;;;;17.22;63.68;101580.81;7398058;19;1984;-43
2022/11/29 02:01:09;;;;;;;;;;;;;;;17.27;62.74;101593.88;7399162;19;1718;-43
2022/11/29 02:03:44;;;;;;;;;;;;;;;18.05;61.90;101585.78;7397805;19;1869;-42
2022/11/29 02:06:14;;;;;;;;;;;;;;;18.47;61.00;101574.78;7399101;19;1858;-43
2022/11/29 02:08:47;;;;;;;;;;;;;;;18.71;60.51;101576.63;7400248;19;1691;-44
2022/11/29 02:11:30;;;;;;;;;;;;;;;18.81;60.03;101566.94;7401052;19;967;-42
2022/11/29 02:14:16;;;;;;;;;;;;;;;19.01;60.33;101552.06;7405909;19;1838;-43
2022/11/29 02:16:49;;;;;;;;;;;;;;;19.07;60.21;101567.66;7407475;19;1439;-43
2022/11/29 02:19:35;;;;;;;;;;;;;;;19.25;59.72;101566.25;7407059;19;1441;-42
2022/11/29 02:22:10;;;;;;;;;;;;;;;19.42;59.23;101570.34;7407468;19;1745;-42
2022/11/29 02:25:00;;;;;;;;;;;;;;;19.15;59.84;101562.56;7405988;19;1947;-42
2022/11/29 02:27:47;;;;;;;;;;;;;;;19.20;59.77;101567.56;7407577;19;1510;-43
2022/11/29 02:30:21;;;;;;;;;;;;;;;19.16;59.94;101576.81;7404102;19;1795;-43
2022/11/29 02:33:05;;;;;;;;;;;;;;;19.19;59.70;101587.31;7407586;19;993;-42
2022/11/29 02:35:47;;;;;;;;;;;;;;;19.24;59.76;101577.13;7407391;19;1037;-43
2022/11/29 02:38:23;;;;;;;;;;;;;;;19.51;59.57;101592.06;7407565;19;1818;-42
2022/11/29 02:41:02;;;;;;;;;;;;;;;19.60;59.76;101594.03;7407763;19;1063;-43
2022/11/29 02:43:44;;;;;;;;;;;;;;;19.47;59.88;101578.84;7404267;19;1727;-43
2022/11/29 02:46:18;;;;;;;;;;;;;;;19.31;60.38;101581.03;7403006;19;1861;-43
2022/11/29 02:48:54;;;;;;;;;;;;;;;19.41;59.87;101584.69;7405832;19;1342;-42
2022/11/29 02:51:35;;;;;;;;;;;;;;;19.39;59.80;101581.28;7404743;19;1922;-42
2022/11/29 02:54:08;;;;;;;;;;;;;;;19.40;59.98;101574.13;7404571;19;1890;-43
2022/11/29 02:56:50;;;;;;;;;;;;;;;19.48;59.47;101556.44;7405998;19;971;-43
2022/11/29 02:59:22;;;;;;;;;;;;;;;19.52;59.17;101561.53;7405163;19;1622;-42
2022/11/29 03:01:57;;;;;;;;;;;;;;;19.57;59.04;101559.38;7403009;19;1788;-71
2022/11/29 03:04:30;;;;;;;;;;;;;;;19.52;59.38;101580.31;7409124;19;1853;-70
2022/11/29 03:07:05;;;;;;;;;;;;;;;19.60;58.80;101581.47;7408911;19;1624;-70
2022/11/29 03:09:38;;;;;;;;;;;;;;;19.58;59.14;101571.84;7408875;19;1359;-71
2022/11/29 03:12:13;;;;;;;;;;;;;;;19.59;58.59;101558.28;7409361;19;971;-70
2022/11/29 03:14:47;;;;;;;;;;;;;;;19.51;59.15;101559.84;7406714;19;1786;-70
2022/11/29 03:17:19;;;;;;;;;;;;;;;19.62;58.82;101563.41;7408838;19;1777;-70
2022/11/29 03:19:57;;;;;;;;;;;;;;;19.64;58.79;101563.31;7408353;19;1486;-71
2022/11/29 03:22:33;;;;;;;;;;;;;;;19.70;58.42;101560.13;7408743;19;1741;-71
2022/11/29 03:25:04;;;;;;;;;;;;;;;19.74;58.16;101555.41;7407119;19;1858;-70
2022/11/29 03:27:40;;;;;;;;;;;;;;;19.65;58.79;101562.31;7409041;19;1360;-70
2022/11/29 03:30:10;;;;;;;;;;;;;;;19.68;58.46;101564.75;7408410;19;1593;-71
2022/11/29 03:32:41;;;;;;;;;;;;;;;19.74;58.14;101560.78;7409686;19;1011;-70
2022/11/29 03:35:13;;;;;;;;;;;;;;;19.76;58.18;101565.03;7408054;19;1494;-70
2022/11/29 03:37:50;;;;;;;;;;;;;;;19.97;57.63;101570.53;7408094;19;1755;-70
2022/11/29 03:40:21;;;;;;;;;;;;;;;20.04;57.23;101562.84;7407919;19;1656;-70
2022/11/29 03:42:53;;;;;;;;;;;;;;;19.87;57.64;101566.88;7407900;19;1403;-71
2022/11/29 03:45:26;;;;;;;;;;;;;;;19.85;57.39;101569.66;7407868;19;1898;-70
2022/11/29 03:47:59;;;;;;;;;;;;;;;19.82;57.82;101564.56;7408542;19;1517;-70
2022/11/29 03:50:29;;;;;;;;;;;;;;;19.74;57.89;101579.56;7408126;19;1430;-70
2022/11/29 03:53:04;;;;;;;;;;;;;;;19.73;57.60;101573.31;7409109;19;1014;-70
2022/11/29 03:55:35;;;;;;;;;;;;;;;19.77;57.59;101593.56;7409049;19;977;-70
2022/11/29 03:58:11;;;;;;;;;;;;;;;19.75;57.46;101584.78;7405420;19;1503;-70
2022/11/29 04:00:47;;;;;;;;;;;;;;;19.91;57.02;101573.69;7407195;19;1351;-70
2022/11/29 04:03:29;;;;;;;;;;;;;;;19.90;56.99;101587.25;7407439;19;1444;-71
2022/11/29 04:06:06;;;;;;;;;;;;;;;19.78;57.39;101579.19;7406244;19;1848;-70
2022/11/29 04:08:51;;;;;;;;;;;;;;;19.80;57.27;101587.97;7407165;19;1636;-71
2022/11/29 04:11:32;;;;;;;;;;;;;;;19.71;57.23;101591.38;7407955;19;1051;-70
2022/11/29 04:14:18;;;;;;;;;;;;;;;19.75;57.14;101600.88;7405840;19;1736;-70
2022/11/29 04:17:01;;;;;;;;;;;;;;;19.61;57.66;101587.66;7407254;19;1537;-70
2022/11/29 04:19:51;;;;;;;;;;;;;;;19.55;57.69;101593.50;7404444;19;1481;-70
2022/11/29 04:22:29;;;;;;;;;;;;;;;19.26;58.67;101583.22;7406693;19;1634;-70
2022/11/29 04:25:12;;;;;;;;;;;;;;;19.07;59.89;101573.88;7407326;19;1853;-70
2022/11/29 04:27:55;;;;;;;;;;;;;;;19.11;59.70;101579.00;7406495;19;1632;-70
2022/11/29 04:30:25;;;;;;;;;;;;;;;19.04;59.91;101584.00;7403902;19;1388;-70
2022/11/29 04:33:18;;;;;;;;;;;;;;;18.97;60.37;101585.41;7407611;19;983;-70
2022/11/29 04:36:04;;;;;;;;;;;;;;;19.04;60.37;101573.28;7404484;19;1544;-70
2022/11/29 04:38:47;;;;;;;;;;;;;;;18.98;60.36;101566.53;7405440;19;1380;-70
2022/11/29 04:41:25;;;;;;;;;;;;;;;18.97;61.01;101580.06;7406167;19;1220;-70
2022/11/29 04:44:07;;;;;;;;;;;;;;;19.04;60.65;101576.81;7403628;19;1680;-70
2022/11/29 04:46:58;;;;;;;;;;;;;;;19.02;60.81;101581.44;7404853;19;1859;-70
2022/11/29 04:49:41;;;;;;;;;;;;;;;19.06;60.63;101577.53;7402883;19;1608;-70
2022/11/29 04:52:20;;;;;;;;;;;;;;;19.00;61.22;101577.13;7406014;19;1590;-70
2022/11/29 04:54:51;;;;;;;;;;;;;;;18.96;61.21;101576.53;7403784;19;1439;-70
2022/11/29 04:57:26;;;;;;;;;;;;;;;19.00;60.93;101564.59;7406304;19;1074;-70
2022/11/29 05:00:01;;;;;;;;;;;;;;;19.01;61.25;101579.69;7406141;19;977;-70
2022/11/29 05:02:34;;;;;;;;;;;;;;;19.10;60.97;101593.38;7404562;19;1782;-70
2022/11/29 05:05:07;;;;;;;;;;;;;;;19.01;61.21;101574.34;7405777;19;1853;-70
2022/11/29 05:07:41;;;;;;;;;;;;;;;18.98;61.17;101592.47;7405351;19;1743;-70
2022/11/29 05:10:23;;;;;;;;;;;;;;;19.10;61.05;101588.91;7404855;19;1861;-70
2022/11/29 05:12:57;;;;;;;;;;;;;;;19.04;61.55;101606.28;7404921;19;1368;-70
2022/11/29 05:15:42;;;;;;;;;;;;;;;19.13;61.09;101596.69;7404076;19;1352;-70
2022/11/29 05:18:18;;;;;;;;;;;;;;;19.07;61.60;101595.31;7404382;19;1351;-70
2022/11/29 05:20:48;;;;;;;;;;;;;;;19.04;61.41;101618.84;7403170;19;1431;-70
2022/11/29 05:23:31;;;;;;;;;;;;;;;19.04;61.45;101608.97;7405197;19;1650;-71
2022/11/29 05:26:02;;;;;;;;;;;;;;;19.04;61.45;101617.00;7405346;19;1856;-70
2022/11/29 05:28:34;;;;;;;;;;;;;;;18.99;61.92;101629.91;7402804;19;1762;-70
2022/11/29 05:31:15;;;;;;;;;;;;;;;19.04;61.92;101630.41;7403389;19;1542;-70
2022/11/29 05:34:07;;;;;;;;;;;;;;;18.99;61.46;101645.97;7403244;19;1542;-70
2022/11/29 05:36:40;;;;;;;;;;;;;;;19.02;61.79;101643.09;7403139;19;1637;-70
2022/11/29 05:39:23;;;;;;;;;;;;;;;19.08;61.48;101634.56;7404970;19;1427;-71
2022/11/29 05:42:01;;;;;;;;;;;;;;;19.07;61.82;101623.97;7404274;19;1014;-70
2022/11/29 05:44:34;;;;;;;;;;;;;;;19.05;61.72;101621.38;7403718;19;1683;-70
2022/11/29 05:47:03;;;;;;;;;;;;;;;19.00;61.94;101620.91;7406307;19;1867;-70
2022/11/29 05:49:38;;;;;;;;;;;;;;;18.97;61.70;101629.16;7412283;19;1313;-70
2022/11/29 05:52:23;;;;;;;;;;;;;;;19.04;62.02;101635.78;7411740;19;1545;-70
2022/11/29 05:55:00;;;;;;;;;;;;;;;18.97;61.86;101628.31;7412086;19;1475;-70
2022/11/29 05:57:33;;;;;;;;;;;;;;;18.98;62.03;101633.56;7412290;19;1497;-70
2022/11/29 06:00:03;;;;;;;;;;;;;;;18.99;62.06;101629.91;7412077;19;983;-70
2022/11/29 06:02:38;;;;;;;;;;;;;;;18.98;62.24;101633.56;7409560;19;1124;-70
2022/11/29 06:05:14;;;;;;;;;;;;;;;18.99;61.75;101637.94;7411421;19;1700;-71
2022/11/29 06:07:47;;;;;;;;;;;;;;;19.23;61.46;101635.22;7411231;19;1494;-66
2022/11/29 06:10:16;;;;;;;;;;;;;;;19.46;61.13;101633.50;7404024;19;1755;-71
2022/11/29 06:12:49;;;;;;;;;;;;;;;19.43;61.21;101644.44;7409901;19;1350;-71
2022/11/29 06:15:32;;;;;;;;;;;;;;;19.39;61.45;101634.06;7344782;19;12832;-70
2022/11/29 06:18:14;;;;;;;;;;;;;;;19.43;61.25;101655.19;7406462;19;1577;-70
2022/11/29 06:20:53;;;;;;;;;;;;;;;19.50;61.28;101655.59;7403306;19;1578;-70
2022/11/29 06:23:31;;;;;;;;;;;;;;;19.53;61.29;101665.22;7407616;19;1325;-71
2022/11/29 06:26:06;;;;;;;;;;;;;;;19.56;61.36;101654.28;7408232;19;1864;-69
2022/11/29 06:28:44;;;;;;;;;;;;;;;19.58;61.38;101636.22;7409226;19;1375;-69
2022/11/29 06:31:16;;;;;;;;;;;;;;;19.57;61.21;101646.06;7407788;19;1648;-71
2022/11/29 06:33:49;;;;;;;;;;;;;;;19.50;61.48;101641.28;7408454;19;1528;-70
2022/11/29 06:36:22;;;;;;;;;;;;;;;19.63;61.32;101644.75;7406273;19;1384;-66
2022/11/29 06:38:51;;;;;;;;;;;;;;;19.71;61.62;101642.34;7407009;19;1355;-69
2022/11/29 06:41:21;;;;;;;;;;;;;;;19.64;62.23;101630.38;7409833;19;1105;-67
2022/11/29 06:43:50;;;;;;;;;;;;;;;19.81;62.71;101637.97;7406359;19;1671;-68
2022/11/29 06:46:24;;;;;;;;;;;;;;;19.73;62.83;101647.63;7405081;19;1842;-70
2022/11/29 06:48:54;;;;;;;;;;;;;;;19.54;63.46;101656.22;7406119;19;1474;-74
2022/11/29 06:51:30;;;;;;;;;;;;;;;19.59;63.10;101649.50;7407173;19;1481;-68
2022/11/29 06:54:02;;;;;;;;;;;;;;;19.81;62.64;101642.50;7408515;19;1451;-68
2022/11/29 06:56:35;;;;;;;;;;;;;;;20.00;62.44;101641.94;7407553;19;1390;-68
2022/11/29 06:59:09;;;;;;;;;;;;;;;20.22;60.83;101652.66;7403914;19;1501;-62
2022/11/29 07:01:42;;;;;;;;;;;;;;;19.74;61.95;101649.34;7403669;19;1323;-69
2022/11/29 07:04:31;;;;;;;;;;;;;;;19.43;62.75;101644.44;7408108;19;1454;-71
2022/11/29 07:07:02;;;;;;;;;;;;;;;19.58;62.13;101628.16;7405877;19;1853;-73
2022/11/29 07:09:35;;;;;;;;;;;;;;;19.52;62.35;101631.28;7407253;19;1287;-62
2022/11/29 07:12:03;;;;;;;;;;;;;;;19.73;62.48;101650.31;7406901;19;1459;-65
2022/11/29 07:14:32;;;;;;;;;;;;;;;19.67;62.13;101636.34;7407701;19;1738;-65
2022/11/29 07:17:06;;;;;;;;;;;;;;;19.81;62.38;101631.78;7405998;19;1530;-67
2022/11/29 07:19:38;;;;;;;;;;;;;;;19.93;62.65;101640.69;7407869;19;1640;-69
2022/11/29 07:22:12;;;;;;;;;;;;;;;19.91;62.07;101631.91;7407840;19;1461;-68
2022/11/29 07:24:54;;;;;;;;;;;;;;;19.86;62.47;101662.66;7407358;19;1493;-66
2022/11/29 07:27:27;;;;;;;;;;;;;;;20.01;62.22;101644.47;7406649;19;1849;-64
2022/11/29 07:30:04;;;;;;;;;;;;;;;20.34;61.70;101644.63;7406252;19;1346;-65
2022/11/29 07:32:40;;;;;;;;;;;;;;;20.60;61.13;101624.56;7405892;19;1271;-66
2022/11/29 07:35:12;;;;;;;;;;;;;;;20.64;61.18;101625.19;7407171;19;1710;-69
2022/11/29 07:37:49;;;;;;;;;;;;;;;20.33;61.25;101646.44;7404599;19;1439;-67
2022/11/29 07:40:19;;;;;;;;;;;;;;;19.80;62.97;101638.97;7407150;19;1682;-66
2022/11/29 07:42:56;;;;;;;;;;;;;;;19.46;63.78;101648.75;7406582;19;1722;-67
2022/11/29 07:45:27;;;;;;;;;;;;;;;19.32;64.52;101632.81;7400852;19;1580;-68
2022/11/29 07:47:55;;;;;;;;;;;;;;;19.24;64.87;101633.44;7404943;19;1845;-63
2022/11/29 07:50:24;;;;;;;;;;;;;;;19.13;64.57;101647.63;7407327;19;1222;-72
2022/11/29 07:52:56;;;;;;;;;;;;;;;19.08;65.10;101631.91;7407998;19;1059;-71
2022/11/29 07:55:25;;;;;;;;;;;;;;;19.04;65.01;101627.75;7405580;19;1632;-69
2022/11/29 07:57:54;;;;;;;;;;;;;;;19.03;65.36;101650.13;7405783;19;1393;-72
2022/11/29 08:00:23;;;;;;;;;;;;;;;18.99;65.24;101629.91;7406249;19;1350;-70
2022/11/29 08:02:52;;;;;;;;;;;;;;;18.97;65.84;101626.47;7405076;19;1265;-69
2022/11/29 08:05:21;;;;;;;;;;;;;;;18.92;66.07;101628.66;7404794;19;1002;-64
2022/11/29 08:07:50;;;;;;;;;;;;;;;18.85;65.77;101638.97;7398407;19;1869;-69
2022/11/29 08:10:21;;;;;;;;;;;;;;;18.88;66.15;101638.75;7405150;19;1564;-67
2022/11/29 08:12:50;;;;;;;;;;;;;;;18.90;66.69;101641.31;7405681;19;1615;-67
2022/11/29 08:15:19;;;;;;;;;;;;;;;18.95;66.45;101657.03;7404417;19;1433;-68
2022/11/29 08:17:48;;;;;;;;;;;;;;;18.97;65.75;101655.09;7406342;19;1548;-63
2022/11/29 08:20:17;;;;;;;;;;;;;;;18.78;65.91;101652.88;7405784;19;1666;-65
2022/11/29 08:22:45;;;;;;;;;;;;;;;18.79;65.90;101649.25;7407087;19;1706;-66
2022/11/29 08:25:14;;;;;;;;;;;;;;;18.94;65.52;101639.25;7402689;19;1667;-67
2022/11/29 08:27:45;;;;;;;;;;;;;;;18.88;64.56;101637.91;7404947;19;1909;-65
2022/11/29 08:30:13;;;;;;;;;;;;;;;18.93;66.17;101642.91;7402984;19;1398;-71
2022/11/29 08:32:42;;;;;;;;;;;;;;;18.94;65.69;101650.84;7405976;19;1478;-65
2022/11/29 08:35:10;;;;;;;;;;;;;;;18.87;66.05;101662.97;7405143;19;1580;-62
2022/11/29 08:37:39;;;;;;;;;;;;;;;18.78;66.67;101636.81;7404673;19;1672;-62
2022/11/29 08:40:08;;;;;;;;;;;;;;;18.86;66.63;101661.25;7404620;19;1548;-66
2022/11/29 08:42:36;;;;;;;;;;;;;;;20.05;67.18;101634.34;7404083;19;1812;-65
2022/11/29 08:45:08;;;;;;;;;;;;;;;19.28;66.03;101632.22;7405126;19;1473;-64
2022/11/29 08:47:41;;;;;;;;;;;;;;;19.03;66.69;101631.38;7404902;19;1862;-65
2022/11/29 08:50:13;;;;;;;;;;;;;;;19.02;67.12;101616.28;7405293;19;1406;-66
2022/11/29 08:55:23;;;;;;;;;;;;;;;18.77;68.07;101633.28;7404940;19;1365;-67
2022/11/29 08:57:52;;;;;;;;;;;;;;;18.65;68.73;101631.50;7404772;19;1509;-68
2022/11/29 09:00:23;;;;;;;;;;;;;;;18.58;68.73;101612.34;7404655;19;1296;-69
2022/11/29 09:02:52;;;;;;;;;;;;;;;18.63;68.85;101623.56;7405553;19;1424;-66
2022/11/29 09:05:20;;;;;;;;;;;;;;;18.77;68.16;101619.03;7405781;19;1556;-69
2022/11/29 09:07:48;;;;;;;;;;;;;;;18.78;68.50;101620.72;7403846;19;1855;-68
2022/11/29 09:10:17;;;;;;;;;;;;;;;18.76;68.39;101617.31;7403327;19;1659;-68
2022/11/29 09:12:45;;;;;;;;;;;;;;;18.81;68.72;101623.22;7402022;19;1639;-70
2022/11/29 09:15:14;;;;;;;;;;;;;;;18.88;68.80;101611.94;7404098;19;1675;-73
2022/11/29 09:17:45;;;;;;;;;;;;;;;18.80;67.52;101614.34;7404937;19;1617;-71
2022/11/29 09:20:13;;;;;;;;;;;;;;;18.55;68.87;101614.41;7404859;19;1482;-68
2022/11/29 09:22:42;;;;;;;;;;;;;;;18.67;68.41;101600.94;7403821;19;1498;-67
2022/11/29 09:25:10;;;;;;;;;;;;;;;18.85;67.99;101604.13;7404265;19;1757;-67
2022/11/29 09:27:40;;;;;;;;;;;;;;;18.85;66.74;101616.66;7404559;19;1868;-76
2022/11/29 09:30:09;;;;;;;;;;;;;;;18.71;67.62;101606.09;7403991;19;1461;-77
2022/11/29 09:32:38;;;;;;;;;;;;;;;18.59;67.96;101589.94;7404692;19;1478;-69
2022/11/29 09:35:09;;;;;;;;;;;;;;;18.52;68.43;101596.69;7402350;19;1497;-70
2022/11/29 09:37:38;;;;;;;;;;;;;;;18.56;67.84;101598.22;7400714;19;1731;-67
2022/11/29 09:40:07;;;;;;;;;;;;;;;18.55;68.49;101604.53;7399095;19;1655;-68
2022/11/29 09:42:43;;;;;;;;;;;;;;;18.51;68.38;101589.66;7403649;19;1536;-68
2022/11/29 09:45:12;;;;;;;;;;;;;;;18.54;68.65;101597.44;7402008;19;1525;-68
2022/11/29 09:48:01;;;;;;;;;;;;;;;18.47;67.93;101590.84;7403029;19;1859;-67
2022/11/29 09:50:34;;;;;;;;;;;;;;;18.60;67.76;101593.47;7403482;19;1658;-72
2022/11/29 09:53:10;;;;;;;;;;;;;;;18.54;68.63;101600.13;7403970;19;1511;-71
2022/11/29 09:55:47;;;;;;;;;;;;;;;18.53;69.12;101590.41;7402916;19;1576;-73
2022/11/29 09:58:19;;;;;;;;;;;;;;;18.64;68.72;101582.44;7401029;19;1675;-74
2022/11/29 10:00:50;;;;;;;;;;;;;;;18.62;68.50;101589.72;7402865;19;1468;-71
2022/11/29 10:03:24;;;;;;;;;;;;;;;18.61;68.36;101593.34;7397130;19;1198;-66
2022/11/29 10:05:57;;;;;;;;;;;;;;;18.66;68.56;101598.38;7402908;19;1342;-78
2022/11/29 10:08:29;;;;;;;;;;;;;;;18.63;69.07;101602.13;7399108;19;1886;-70
2022/11/29 10:10:59;;;;;;;;;;;;;;;18.65;68.65;101594.84;7403219;19;1572;-72
2022/11/29 10:13:30;;;;;;;;;;;;;;;18.79;68.46;101582.25;7401418;19;1623;-75
2022/11/29 10:16:01;;;;;;;;;;;;;;;18.76;68.63;101563.72;7400076;19;1636;-78
2022/11/29 10:18:32;;;;;;;;;;;;;;;18.66;68.59;101539.44;7399729;19;1433;-76
2022/11/29 10:21:06;;;;;;;;;;;;;;;18.59;68.79;101564.97;7396587;19;1493;-78
2022/11/29 10:23:37;;;;;;;;;;;;;;;18.52;69.51;101561.03;7399725;19;1587;-74
2022/11/29 10:26:07;;;;;;;;;;;;;;;18.55;69.54;101560.81;7400555;19;1569;-78
2022/11/29 10:28:37;;;;;;;;;;;;;;;18.49;69.68;101556.78;7395715;19;1869;-78
2022/11/29 10:31:14;;;;;;;;;;;;;;;18.65;68.91;101551.97;7397687;19;1670;-75
2022/11/29 10:33:43;;;;;;;;;;;;;;;18.67;69.47;101563.44;7397383;19;1509;-66
2022/11/29 10:36:17;;;;;;;;;;;;;;;18.66;69.80;101564.41;7403199;19;1572;-76
2022/11/29 10:38:46;;;;;;;;;;;;;;;18.63;69.43;101564.63;7394362;19;1606;-76
2022/11/29 10:41:18;;;;;;;;;;;;;;;18.63;69.70;101564.63;7396206;19;1438;-77
2022/11/29 10:43:47;;;;;;;;;;;;;;;18.79;69.24;101568.84;7394433;19;1580;-71
2022/11/29 10:46:17;;;;;;;;;;;;;;;18.84;68.63;101547.94;7401812;19;1576;-71
2022/11/29 10:48:46;;;;;;;;;;;;;;;18.62;66.77;101556.72;7402462;19;1849;-75
2022/11/29 10:51:19;;;;;;;;;;;;;;;18.33;65.60;101553.50;7405401;19;1288;-70
2022/11/29 10:53:47;;;;;;;;;;;;;;;18.44;69.13;101558.91;7408621;19;1572;-76
2022/11/29 10:56:21;;;;;;;;;;;;;;;18.55;69.10;101550.97;7407111;19;1655;-77
2022/11/29 10:58:57;;;;;;;;;;;;;;;18.69;68.52;101558.81;7406829;19;1672;-75
2022/11/29 11:01:27;;;;;;;;;;;;;;;18.65;68.84;101535.91;7406226;19;1588;-73
2022/11/29 11:03:57;;;;;;;;;;;;;;;18.81;68.64;101540.16;7406992;19;1596;-73
2022/11/29 11:06:29;;;;;;;;;;;;;;;18.78;68.29;101532.31;7407794;19;1671;-72
2022/11/29 11:08:59;;;;;;;;;;;;;;;18.82;68.71;101544.53;7405807;19;1860;-73
2022/11/29 11:11:29;;;;;;;;;;;;;;;18.80;68.95;101544.66;7409738;19;1333;-74
2022/11/29 11:14:02;;;;;;;;;;;;;;;18.83;68.80;101533.69;7407671;19;1203;-71
2022/11/29 11:16:30;;;;;;;;;;;;;;;18.99;67.97;101519.16;7405894;19;1447;-75
2022/11/29 11:18:59;;;;;;;;;;;;;;;18.95;68.42;101529.25;7406509;19;1358;-73
2022/11/29 11:21:30;;;;;;;;;;;;;;;18.82;68.90;101536.50;7403686;19;1656;-71
2022/11/29 11:24:00;;;;;;;;;;;;;;;18.71;69.04;101520.34;7406342;19;1549;-79
2022/11/29 11:26:29;;;;;;;;;;;;;;;18.68;69.14;101511.59;7407458;19;1315;-71
2022/11/29 11:28:59;;;;;;;;;;;;;;;18.62;69.56;101520.06;7403943;19;1861;-73
2022/11/29 11:31:30;;;;;;;;;;;;;;;18.71;69.41;101528.38;7405897;19;1426;-76
2022/11/29 11:33:58;;;;;;;;;;;;;;;18.67;69.43;101512.53;7405406;19;1719;-71
2022/11/29 11:36:28;;;;;;;;;;;;;;;18.59;69.55;101536.38;7405304;19;1357;-70
2022/11/29 11:39:00;;;;;;;;;;;;;;;18.50;69.78;101520.97;7402980;19;1384;-70
2022/11/29 11:42:35;;;;;;;;;;;;;;;18.55;69.85;101516.13;7403518;19;1392;-70
2022/11/29 11:44:34;;;;;;;;;;;;;;;18.51;69.78;101525.38;7403414;19;1735;-70
2022/11/29 11:47:03;;;;;;;;;;;;;;;18.42;70.11;101526.03;7406412;19;1180;-71
2022/11/29 11:49:33;;;;;;;;;;;;;;;18.47;70.20;101519.38;7403759;19;1859;-70
2022/11/29 11:52:02;;;;;;;;;;;;;;;19.21;67.94;101521.03;7405917;19;1324;-71
2022/11/29 11:54:33;;;;;;;;;;;;;;;19.95;65.32;101517.94;7405146;19;1368;-70
2022/11/29 11:57:02;;;;;;;;;;;;;;;20.58;63.61;101507.44;7406713;19;1309;-70
2022/11/29 11:59:30;;;;;;;;;;;;;;;20.68;63.08;101505.69;7405601;19;1620;-70
2022/11/29 12:01:59;;;;;;;;;;;;;;;20.83;62.83;101501.72;7403520;19;1307;-70
2022/11/29 12:04:30;;;;;;;;;;;;;;;20.86;62.71;101506.00;7404518;19;1332;-71
2022/11/29 12:07:01;;;;;;;;;;;;;;;20.73;63.08;101508.88;7404121;19;1592;-73
2022/11/29 12:09:37;;;;;;;;;;;;;;;20.00;65.34;101507.69;7402016;19;1849;-72
2022/11/29 12:12:09;;;;;;;;;;;;;;;19.64;66.34;101507.81;7405115;19;1592;-70
2022/11/29 12:14:40;;;;;;;;;;;;;;;19.30;67.80;101506.03;7404005;19;1324;-71
2022/11/29 12:17:13;;;;;;;;;;;;;;;19.08;68.46;101505.06;7404935;19;1537;-72
2022/11/29 12:19:47;;;;;;;;;;;;;;;18.96;68.51;101506.84;7404476;19;1424;-71
2022/11/29 12:22:18;;;;;;;;;;;;;;;18.93;68.59;101490.97;7405307;19;1244;-72
2022/11/29 12:24:53;;;;;;;;;;;;;;;18.85;69.38;101490.72;7404476;19;1232;-67
2022/11/29 12:27:22;;;;;;;;;;;;;;;18.82;69.42;101488.25;7405860;19;1391;-72
2022/11/29 12:29:50;;;;;;;;;;;;;;;18.75;69.07;101477.13;7406855;19;981;-77
2022/11/29 12:32:26;;;;;;;;;;;;;;;18.76;69.33;101486.88;7405630;19;1436;-79
2022/11/29 12:35:00;;;;;;;;;;;;;;;18.76;69.33;101494.94;7404046;19;1239;-73
2022/11/29 12:37:31;;;;;;;;;;;;;;;18.77;69.57;101485.06;7404401;19;1724;-75
2022/11/29 12:40:07;;;;;;;;;;;;;;;18.74;69.51;101485.28;7404770;19;1552;-73
2022/11/29 12:42:40;;;;;;;;;;;;;;;18.75;69.27;101501.25;7403234;19;1294;-71
2022/11/29 12:45:25;;;;;;;;;;;;;;;18.83;68.78;101490.81;7402022;19;1537;-71
2022/11/29 12:48:01;;;;;;;;;;;;;;;18.78;69.48;101500.16;7404481;19;1874;-72
2022/11/29 12:50:34;;;;;;;;;;;;;;;18.66;69.49;101481.38;7404470;19;1608;-70
2022/11/29 12:53:12;;;;;;;;;;;;;;;18.59;69.96;101511.41;7404914;19;1532;-78
2022/11/29 12:55:49;;;;;;;;;;;;;;;18.71;69.24;101491.72;7401932;19;1478;-69
2022/11/29 12:58:22;;;;;;;;;;;;;;;18.68;69.06;101508.91;7403113;19;1631;-69
2022/11/29 13:00:58;;;;;;;;;;;;;;;18.65;69.44;101498.41;7403344;19;1583;-71
2022/11/29 13:03:30;;;;;;;;;;;;;;;18.59;69.78;101504.22;7404396;19;1878;-68
2022/11/29 13:06:04;;;;;;;;;;;;;;;18.61;69.61;101513.00;7400828;19;1598;-70
2022/11/29 13:08:47;;;;;;;;;;;;;;;18.73;68.96;101508.53;7402337;19;1853;-70
2022/11/29 13:11:20;;;;;;;;;;;;;;;18.63;69.26;101494.97;7404815;19;1706;-72
2022/11/29 13:13:51;;;;;;;;;;;;;;;18.58;69.42;101505.22;7399016;19;1560;-74
2022/11/29 13:16:30;;;;;;;;;;;;;;;18.63;69.25;101510.22;7400580;19;1678;-69
2022/11/29 13:19:01;;;;;;;;;;;;;;;18.63;69.62;101500.34;7402656;19;1660;-70
2022/11/29 13:21:33;;;;;;;;;;;;;;;19.14;67.69;101498.34;7400045;19;1537;-66